Time;durP1;ratioP1;P1;durP2;ratioP2;P2;SDS_P1;SDS_P2;PMS_P1;PMS_P2;Temp;Humidity;BMP_temperature;BMP_pressure;BME280_temperature;BME280_humidity;BME280_pressure;Samples;Min_cycle;Max_cycle;Signal;HPM_P1;HPM_P2
2021/01/25 00:01:04;;;;;;;0.50;0.50;;;0.50;99.90;;;;;;4993857;28;20254;-67
2021/01/25 00:03:31;;;;;;;0.40;0.40;;;0.60;99.90;;;;;;4994055;28;20196;-67
2021/01/25 00:05:57;;;;;;;0.40;0.40;;;0.60;99.90;;;;;;4993106;28;20254;-68
2021/01/25 00:08:23;;;;;;;0.40;0.40;;;0.60;99.90;;;;;;4994004;28;20195;-67
2021/01/25 00:10:48;;;;;;;0.30;0.30;;;0.60;99.90;;;;;;4993945;28;20677;-67
2021/01/25 00:13:14;;;;;;;0.30;0.30;;;0.50;99.90;;;;;;4994016;28;20630;-67
2021/01/25 00:15:39;;;;;;;0.30;0.30;;;0.50;99.90;;;;;;4993215;28;20228;-67
2021/01/25 00:18:05;;;;;;;0.33;0.33;;;0.50;99.90;;;;;;4993452;28;20195;-67
2021/01/25 00:20:31;;;;;;;0.40;0.40;;;0.50;99.90;;;;;;4993456;28;20181;-68
2021/01/25 00:22:57;;;;;;;0.50;0.50;;;0.60;99.90;;;;;;4976746;28;20482;-68
2021/01/25 00:25:22;;;;;;;0.40;0.40;;;0.60;99.90;;;;;;4975744;28;20219;-67
2021/01/25 00:27:48;;;;;;;0.30;0.30;;;0.60;99.90;;;;;;4997638;28;20275;-67
2021/01/25 00:30:17;;;;;;;0.40;0.40;;;0.70;99.90;;;;;;4997467;28;20685;-67
2021/01/25 00:32:43;;;;;;;0.30;0.30;;;0.60;99.90;;;;;;4997346;28;20660;-67
2021/01/25 00:35:09;;;;;;;0.30;0.30;;;0.70;99.90;;;;;;4997189;28;20252;-68
2021/01/25 00:37:35;;;;;;;0.40;0.40;;;0.70;99.90;;;;;;4997081;28;20217;-67
2021/01/25 00:40:00;;;;;;;0.30;0.30;;;0.70;99.90;;;;;;4997440;28;20187;-67
2021/01/25 00:42:26;;;;;;;0.40;0.40;;;0.70;99.90;;;;;;4997595;28;20637;-67
2021/01/25 00:44:51;;;;;;;0.30;0.30;;;0.70;99.90;;;;;;4996647;28;20532;-67
2021/01/25 00:47:17;;;;;;;0.40;0.40;;;0.60;99.90;;;;;;4997011;28;20210;-67
2021/01/25 00:49:42;;;;;;;0.30;0.30;;;0.60;99.90;;;;;;4997414;28;20175;-67
2021/01/25 00:52:08;;;;;;;0.40;0.40;;;0.50;99.90;;;;;;4997054;28;20268;-67
2021/01/25 00:54:34;;;;;;;0.80;0.80;;;0.60;99.90;;;;;;4997196;28;20167;-67
2021/01/25 00:56:59;;;;;;;0.50;0.50;;;0.50;99.90;;;;;;4996538;28;20561;-67
2021/01/25 00:59:25;;;;;;;0.43;0.43;;;0.50;99.90;;;;;;4997081;28;20172;-68
2021/01/25 01:01:51;;;;;;;0.30;0.30;;;0.40;99.90;;;;;;4996089;28;20202;-68
2021/01/25 01:04:16;;;;;;;0.40;0.40;;;0.40;99.90;;;;;;4996992;28;20200;-68
2021/01/25 01:06:42;;;;;;;0.40;0.40;;;0.40;99.90;;;;;;4996269;28;20200;-67
2021/01/25 01:09:08;;;;;;;0.40;0.40;;;0.40;99.90;;;;;;4996725;28;20176;-68
2021/01/25 01:11:35;;;;;;;0.40;0.40;;;0.40;99.90;;;;;;4996736;28;20207;-67
2021/01/25 01:14:00;;;;;;;0.30;0.30;;;0.40;99.90;;;;;;4996875;28;20551;-67
2021/01/25 01:16:27;;;;;;;0.37;0.37;;;0.50;99.90;;;;;;4996158;28;20219;-68
2021/01/25 01:18:52;;;;;;;0.50;0.50;;;0.50;99.90;;;;;;4979461;28;20231;-67
2021/01/25 01:21:18;;;;;;;0.30;0.30;;;0.60;99.90;;;;;;4978589;28;20184;-68
2021/01/25 01:23:43;;;;;;;0.30;0.30;;;0.60;99.90;;;;;;4996685;28;20254;-68
2021/01/25 01:26:09;;;;;;;0.30;0.30;;;0.70;99.90;;;;;;4978203;28;20222;-67
2021/01/25 01:28:35;;;;;;;0.47;0.47;;;0.70;99.90;;;;;;4979168;28;20172;-67
2021/01/25 01:31:01;;;;;;;0.55;0.55;;;0.80;99.90;;;;;;4996495;28;20238;-68
2021/01/25 01:33:27;;;;;;;0.50;0.50;;;0.80;99.90;;;;;;4996632;28;20299;-67
2021/01/25 01:35:52;;;;;;;0.30;0.30;;;0.80;99.90;;;;;;4995320;28;20983;-67
2021/01/25 01:38:18;;;;;;;0.40;0.40;;;0.80;99.90;;;;;;4995023;28;20193;-67
2021/01/25 01:40:43;;;;;;;0.37;0.37;;;0.80;99.90;;;;;;4995745;28;20180;-67
2021/01/25 01:43:09;;;;;;;0.40;0.40;;;0.80;99.90;;;;;;4996552;28;20657;-68
2021/01/25 01:45:35;;;;;;;0.30;0.30;;;0.80;99.90;;;;;;4995587;28;20573;-68
2021/01/25 01:48:01;;;;;;;0.33;0.33;;;0.80;99.90;;;;;;4996227;28;20266;-67
2021/01/25 01:50:28;;;;;;;0.30;0.30;;;0.80;99.90;;;;;;4995556;28;20657;-67
2021/01/25 01:52:53;;;;;;;0.30;0.30;;;0.70;99.90;;;;;;4978932;28;20484;-68
2021/01/25 01:55:21;;;;;;;0.40;0.40;;;0.60;99.90;;;;;;4995617;28;20215;-67
2021/01/25 01:57:51;;;;;;;0.30;0.30;;;0.60;99.90;;;;;;4996018;28;20188;-67
2021/01/25 02:00:18;;;;;;;0.30;0.30;;;0.50;99.90;;;;;;4995902;28;20173;-67
2021/01/25 02:02:44;;;;;;;0.40;0.40;;;0.50;99.90;;;;;;4996040;28;20194;-66
2021/01/25 02:05:11;;;;;;;0.40;0.40;;;0.50;99.90;;;;;;4977315;28;20266;-68
2021/01/25 02:07:38;;;;;;;0.40;0.40;;;0.40;99.90;;;;;;4995844;28;20612;-67
2021/01/25 02:10:05;;;;;;;0.50;0.50;;;0.40;99.90;;;;;;4995800;28;20176;-67
2021/01/25 02:12:31;;;;;;;0.38;0.38;;;0.40;99.90;;;;;;4995440;28;20175;-68
2021/01/25 02:14:59;;;;;;;0.40;0.40;;;0.40;99.90;;;;;;4995186;28;20182;-67
2021/01/25 02:17:25;;;;;;;0.30;0.30;;;0.40;99.90;;;;;;4995574;28;20266;-67
2021/01/25 02:20:01;;;;;;;0.30;0.30;;;0.40;99.90;;;;;;4995123;28;20608;-67
2021/01/25 02:22:36;;;;;;;0.30;0.30;;;0.40;99.90;;;;;;4995770;28;20489;-68
2021/01/25 02:25:25;;;;;;;0.50;0.50;;;0.40;99.90;;;;;;4994922;28;20177;-67
2021/01/25 02:27:51;;;;;;;1.13;1.08;;;0.40;99.90;;;;;;4978241;28;20541;-67
2021/01/25 02:30:18;;;;;;;0.40;0.40;;;0.50;99.90;;;;;;4995228;28;20200;-67
2021/01/25 02:32:46;;;;;;;0.40;0.40;;;0.50;99.90;;;;;;4995543;28;20570;-67
2021/01/25 02:35:16;;;;;;;0.35;0.35;;;0.50;99.90;;;;;;4994062;28;20233;-67
2021/01/25 02:37:44;;;;;;;0.30;0.30;;;0.60;99.90;;;;;;4995671;28;20195;-67
2021/01/25 02:40:12;;;;;;;0.40;0.40;;;0.60;99.90;;;;;;4995150;28;20593;-68
2021/01/25 02:42:40;;;;;;;0.70;0.70;;;0.60;99.90;;;;;;4995274;28;20233;-68
2021/01/25 02:45:07;;;;;;;0.30;0.30;;;0.60;99.90;;;;;;4994651;28;20179;-67
2021/01/25 02:47:35;;;;;;;1.50;1.30;;;0.60;99.90;;;;;;4994990;28;20310;-68
2021/01/25 02:50:01;;;;;;;0.30;0.30;;;0.60;99.90;;;;;;4994173;28;20230;-67
2021/01/25 02:52:27;;;;;;;0.33;0.33;;;0.70;99.90;;;;;;4977626;28;20176;-67
2021/01/25 02:54:54;;;;;;;0.30;0.30;;;0.60;99.90;;;;;;4977282;28;20420;-67
2021/01/25 02:57:20;;;;;;;0.30;0.30;;;0.70;99.90;;;;;;4995000;28;20426;-67
2021/01/25 02:59:48;;;;;;;0.40;0.40;;;0.60;99.90;;;;;;4994600;28;20181;-67
2021/01/25 03:02:15;;;;;;;0.32;0.32;;;0.70;99.90;;;;;;4994722;28;20414;-67
2021/01/25 03:04:42;;;;;;;0.40;0.40;;;0.70;99.90;;;;;;4994183;28;20203;-67
2021/01/25 03:07:07;;;;;;;0.40;0.40;;;0.80;99.90;;;;;;4994658;28;20201;-67
2021/01/25 03:09:33;;;;;;;0.73;0.70;;;0.80;99.90;;;;;;4994215;28;20585;-67
2021/01/25 03:12:02;;;;;;;0.50;0.50;;;0.80;99.90;;;;;;4994442;28;20666;-67
2021/01/25 03:14:28;;;;;;;0.40;0.40;;;0.80;99.90;;;;;;4994056;28;20206;-67
2021/01/25 03:16:54;;;;;;;0.40;0.40;;;0.80;99.90;;;;;;4976768;28;20227;-67
2021/01/25 03:19:20;;;;;;;0.63;0.63;;;0.90;99.90;;;;;;4993962;28;20444;-67
2021/01/25 03:21:51;;;;;;;0.30;0.30;;;0.90;99.90;;;;;;4994854;28;20247;-67
2021/01/25 03:24:17;;;;;;;0.30;0.30;;;1.00;99.90;;;;;;4994353;28;20174;-67
2021/01/25 03:26:43;;;;;;;0.30;0.30;;;1.00;99.90;;;;;;4993945;28;20712;-67
2021/01/25 03:29:09;;;;;;;0.30;0.30;;;1.00;99.90;;;;;;4994247;28;20758;-67
2021/01/25 03:31:35;;;;;;;0.40;0.40;;;1.00;99.90;;;;;;4994355;28;20523;-68
2021/01/25 03:34:02;;;;;;;0.30;0.30;;;1.00;99.90;;;;;;4993731;28;20195;-67
2021/01/25 03:36:29;;;;;;;0.40;0.40;;;1.00;99.90;;;;;;4993662;28;20199;-67
2021/01/25 03:38:55;;;;;;;0.38;0.38;;;1.00;99.90;;;;;;4994147;28;20168;-68
2021/01/25 03:41:21;;;;;;;0.38;0.38;;;0.90;99.90;;;;;;4994170;28;20255;-68
2021/01/25 03:43:47;;;;;;;0.37;0.37;;;0.90;99.90;;;;;;4993822;28;20177;-67
2021/01/25 03:46:13;;;;;;;0.30;0.30;;;0.80;99.90;;;;;;4993816;28;20215;-67
2021/01/25 03:48:38;;;;;;;0.40;0.40;;;0.80;99.90;;;;;;4993820;28;20179;-67
2021/01/25 03:51:04;;;;;;;0.33;0.33;;;0.70;99.90;;;;;;4993932;28;20182;-68
2021/01/25 03:53:30;;;;;;;0.33;0.33;;;0.70;99.90;;;;;;4994202;28;20167;-68
2021/01/25 03:55:55;;;;;;;0.50;0.50;;;0.70;99.90;;;;;;4993015;28;20474;-68
2021/01/25 03:58:21;;;;;;;0.33;0.33;;;0.60;99.90;;;;;;4994659;28;20214;-67
2021/01/25 04:00:47;;;;;;;0.40;0.40;;;0.60;99.90;;;;;;4992958;28;20667;-68
2021/01/25 04:03:13;;;;;;;0.30;0.30;;;0.60;99.90;;;;;;4994217;28;20168;-68
2021/01/25 04:05:38;;;;;;;0.40;0.40;;;0.50;99.90;;;;;;4993296;28;20288;-67
2021/01/25 04:08:05;;;;;;;0.60;0.60;;;0.50;99.90;;;;;;4994105;28;20335;-66
2021/01/25 04:10:30;;;;;;;0.40;0.40;;;0.50;99.90;;;;;;4993291;28;20174;-67
2021/01/25 04:12:56;;;;;;;0.30;0.30;;;0.40;99.90;;;;;;4993459;28;20171;-67
2021/01/25 04:15:21;;;;;;;0.33;0.33;;;0.40;99.90;;;;;;4993955;28;20642;-67
2021/01/25 04:17:47;;;;;;;0.40;0.40;;;0.40;99.90;;;;;;4993785;28;20181;-65
2021/01/25 04:20:13;;;;;;;0.40;0.40;;;0.40;99.90;;;;;;4993334;28;20180;-67
2021/01/25 04:22:39;;;;;;;0.30;0.30;;;0.30;99.90;;;;;;4993920;28;20168;-68
2021/01/25 04:25:06;;;;;;;0.40;0.40;;;0.30;99.90;;;;;;4993216;28;20430;-67
2021/01/25 04:27:32;;;;;;;0.30;0.30;;;0.20;99.90;;;;;;4976112;28;20578;-65
2021/01/25 04:29:57;;;;;;;0.87;0.87;;;0.20;99.90;;;;;;4993239;28;20176;-67
2021/01/25 04:32:25;;;;;;;0.30;0.30;;;0.20;99.90;;;;;;4993744;28;20204;-67
2021/01/25 04:34:52;;;;;;;0.40;0.40;;;0.20;99.90;;;;;;4975717;28;20183;-67
2021/01/25 04:37:18;;;;;;;0.32;0.32;;;0.10;99.90;;;;;;4993651;28;20275;-66
2021/01/25 04:39:44;;;;;;;0.40;0.40;;;0.10;99.90;;;;;;4992657;28;20226;-66
2021/01/25 04:42:09;;;;;;;0.30;0.30;;;0.00;99.90;;;;;;4993828;28;20643;-66
2021/01/25 04:44:38;;;;;;;0.40;0.40;;;0.10;99.90;;;;;;4993409;28;20782;-66
2021/01/25 04:47:05;;;;;;;0.30;0.30;;;0.00;99.90;;;;;;4992869;28;20199;-67
2021/01/25 04:49:31;;;;;;;0.30;0.30;;;0.00;99.90;;;;;;4976242;28;20179;-66
2021/01/25 04:51:58;;;;;;;0.30;0.30;;;0.00;99.90;;;;;;4993661;28;20238;-65
2021/01/25 04:54:24;;;;;;;0.43;0.43;;;0.00;99.90;;;;;;4992889;28;20203;-66
2021/01/25 04:56:51;;;;;;;0.30;0.30;;;0.10;99.90;;;;;;4992906;28;20191;-66
2021/01/25 04:59:17;;;;;;;0.30;0.30;;;0.10;99.90;;;;;;4993322;28;20561;-65
2021/01/25 05:01:44;;;;;;;0.30;0.30;;;0.10;99.90;;;;;;4993168;28;20194;-67
2021/01/25 05:04:09;;;;;;;0.30;0.30;;;0.10;99.90;;;;;;4993488;28;20183;-66
2021/01/25 05:06:35;;;;;;;0.40;0.40;;;0.10;99.90;;;;;;4992637;28;20207;-65
2021/01/25 05:09:01;;;;;;;0.45;0.45;;;0.10;99.90;;;;;;4992997;28;20228;-67
2021/01/25 05:11:27;;;;;;;0.30;0.30;;;0.10;99.90;;;;;;4993336;28;20175;-65
2021/01/25 05:14:02;;;;;;;0.30;0.30;;;0.10;99.90;;;;;;4996428;28;20523;-65
2021/01/25 05:16:29;;;;;;;0.35;0.35;;;0.10;99.90;;;;;;4996563;28;20189;-65
2021/01/25 05:18:56;;;;;;;0.30;0.30;;;0.10;99.90;;;;;;4996592;28;20193;-64
2021/01/25 05:21:42;;;;;;;0.30;0.30;;;0.10;99.90;;;;;;4996786;28;20192;-66
2021/01/25 05:24:08;;;;;;;0.38;0.38;;;0.10;99.90;;;;;;4996896;28;20179;-65
2021/01/25 05:26:35;;;;;;;0.50;0.50;;;0.10;99.90;;;;;;4997261;28;20279;-65
2021/01/25 05:29:01;;;;;;;0.30;0.30;;;0.20;99.90;;;;;;4996505;28;20187;-65
2021/01/25 05:31:27;;;;;;;0.40;0.40;;;0.10;99.90;;;;;;4996601;28;20176;-64
2021/01/25 05:33:54;;;;;;;0.40;0.40;;;0.20;99.90;;;;;;4996375;28;20194;-64
2021/01/25 05:36:29;;;;;;;0.40;0.40;;;0.20;99.90;;;;;;4996211;28;20553;-63
2021/01/25 05:38:54;;;;;;;0.30;0.30;;;0.20;99.90;;;;;;4995724;28;20174;-64
2021/01/25 05:41:21;;;;;;;0.30;0.30;;;0.20;99.90;;;;;;4996442;28;20219;-64
2021/01/25 05:43:48;;;;;;;0.40;0.40;;;0.20;99.90;;;;;;4996184;28;20195;-64
2021/01/25 05:46:16;;;;;;;0.40;0.40;;;0.20;99.90;;;;;;4995490;28;20207;-64
2021/01/25 05:48:42;;;;;;;0.45;0.45;;;0.20;99.90;;;;;;4996078;28;20189;-65
2021/01/25 05:51:18;;;;;;;0.40;0.40;;;0.30;99.90;;;;;;4962843;28;20693;-65
2021/01/25 05:53:46;;;;;;;0.40;0.40;;;0.40;99.90;;;;;;4995900;28;20178;-65
2021/01/25 05:56:13;;;;;;;0.30;0.30;;;0.40;99.90;;;;;;4995661;28;20187;-64
2021/01/25 05:58:40;;;;;;;0.30;0.30;;;0.30;99.90;;;;;;4995382;28;20191;-64
2021/01/25 06:01:07;;;;;;;0.40;0.40;;;0.40;99.90;;;;;;5002513;28;20189;-65
2021/01/25 06:03:36;;;;;;;0.30;0.30;;;0.40;99.90;;;;;;4980318;28;20207;-64
2021/01/25 06:06:15;;;;;;;0.77;0.65;;;0.40;99.90;;;;;;4998131;28;20554;-64
2021/01/25 06:08:53;;;;;;;0.40;0.40;;;0.40;99.90;;;;;;5001805;28;20171;-65
2021/01/25 06:11:22;;;;;;;0.30;0.30;;;0.40;99.90;;;;;;4996190;28;20218;-64
2021/01/25 06:13:52;;;;;;;0.40;0.40;;;0.40;99.90;;;;;;4994998;28;20194;-68
2021/01/25 06:16:21;;;;;;;0.38;0.38;;;0.50;99.90;;;;;;4995391;28;20196;-68
2021/01/25 06:18:47;;;;;;;1.10;1.10;;;0.50;99.90;;;;;;4977865;28;20191;-67
2021/01/25 06:21:24;;;;;;;0.33;0.33;;;0.50;99.90;;;;;;4995225;28;20255;-66
2021/01/25 06:23:53;;;;;;;0.35;0.35;;;0.50;99.90;;;;;;4995028;28;20262;-67
2021/01/25 06:26:20;;;;;;;0.40;0.40;;;0.50;99.90;;;;;;4994787;28;20543;-68
2021/01/25 06:28:48;;;;;;;0.40;0.40;;;0.50;99.90;;;;;;4995215;28;20175;-67
2021/01/25 06:31:18;;;;;;;0.50;0.50;;;0.60;99.90;;;;;;4995156;28;20172;-66
2021/01/25 06:33:47;;;;;;;0.30;0.30;;;0.60;99.90;;;;;;4995553;28;20184;-68
2021/01/25 06:36:16;;;;;;;0.40;0.40;;;0.60;99.90;;;;;;4994642;28;20207;-67
2021/01/25 06:38:43;;;;;;;0.45;0.45;;;0.60;99.90;;;;;;4995281;28;20175;-65
2021/01/25 06:41:10;;;;;;;0.60;0.60;;;0.60;99.90;;;;;;4977016;28;20724;-65
2021/01/25 06:43:41;;;;;;;0.30;0.30;;;0.60;99.90;;;;;;4995252;28;20250;-65
2021/01/25 06:46:07;;;;;;;0.73;0.73;;;0.60;99.90;;;;;;4994054;28;20232;-65
2021/01/25 06:48:34;;;;;;;0.30;0.30;;;0.60;99.90;;;;;;4994935;28;20665;-65
2021/01/25 06:51:01;;;;;;;0.57;0.57;;;0.60;99.90;;;;;;4992797;28;20186;-66
2021/01/25 06:53:29;;;;;;;0.30;0.30;;;0.60;99.90;;;;;;4992584;28;20237;-66
2021/01/25 06:56:00;;;;;;;0.40;0.40;;;0.50;99.90;;;;;;4992248;28;20192;-65
2021/01/25 06:58:30;;;;;;;0.30;0.30;;;0.60;99.90;;;;;;4992832;28;20225;-65
2021/01/25 07:00:56;;;;;;;0.30;0.30;;;0.50;99.90;;;;;;4992687;28;20218;-65
2021/01/25 07:03:22;;;;;;;0.30;0.30;;;0.60;99.90;;;;;;4992989;28;20181;-65
2021/01/25 07:05:50;;;;;;;0.40;0.40;;;0.50;99.90;;;;;;4993890;28;20206;-64
2021/01/25 07:08:26;;;;;;;0.40;0.40;;;0.50;99.90;;;;;;4994458;28;20511;-67
2021/01/25 07:10:55;;;;;;;0.50;0.50;;;0.50;99.90;;;;;;4994280;28;20178;-68
2021/01/25 07:13:23;;;;;;;0.30;0.30;;;0.50;99.90;;;;;;4994733;28;20179;-69
2021/01/25 07:15:49;;;;;;;0.93;0.93;;;0.60;99.90;;;;;;4976376;28;20700;-68
2021/01/25 07:18:17;;;;;;;0.50;0.50;;;0.60;99.90;;;;;;4994438;28;20221;-68
2021/01/25 07:20:47;;;;;;;0.38;0.38;;;0.60;99.90;;;;;;4994206;28;20184;-68
2021/01/25 07:23:17;;;;;;;0.40;0.40;;;0.60;99.90;;;;;;4994719;28;20176;-66
2021/01/25 07:25:46;;;;;;;0.40;0.40;;;0.60;99.90;;;;;;4993853;28;20221;-69
2021/01/25 07:28:12;;;;;;;0.77;0.77;;;0.60;99.90;;;;;;4994534;28;20171;-68
2021/01/25 07:30:37;;;;;;;0.40;0.40;;;0.70;99.90;;;;;;4994032;28;20236;-67
2021/01/25 07:33:03;;;;;;;0.40;0.40;;;0.70;99.90;;;;;;4994061;28;20192;-67
2021/01/25 07:35:31;;;;;;;0.40;0.40;;;0.80;99.90;;;;;;4993896;28;20167;-67
2021/01/25 07:37:56;;;;;;;0.40;0.40;;;0.80;99.90;;;;;;4994441;28;20230;-64
2021/01/25 07:40:23;;;;;;;0.40;0.40;;;0.80;99.90;;;;;;4994192;28;20172;-65
2021/01/25 07:42:49;;;;;;;0.40;0.40;;;0.90;99.90;;;;;;4994161;28;20185;-64
2021/01/25 07:45:15;;;;;;;1.63;1.63;;;1.00;99.90;;;;;;4993492;28;20176;-65
2021/01/25 07:47:45;;;;;;;0.40;0.40;;;0.90;99.90;;;;;;4993931;28;20214;-66
2021/01/25 07:50:12;;;;;;;0.30;0.30;;;0.90;99.90;;;;;;4993995;28;20171;-67
2021/01/25 07:52:37;;;;;;;0.40;0.40;;;1.00;99.90;;;;;;4977058;28;20258;-67
2021/01/25 07:55:14;;;;;;;1.47;1.47;;;1.00;99.90;;;;;;4993719;28;20273;-66
2021/01/25 07:57:40;;;;;;;0.30;0.30;;;1.00;99.90;;;;;;4994076;28;20528;-65
2021/01/25 08:00:22;;;;;;;0.40;0.40;;;1.00;99.90;;;;;;4993666;28;20186;-66
2021/01/25 08:03:03;;;;;;;0.40;0.40;;;1.00;99.90;;;;;;4994211;28;20527;-66
2021/01/25 08:05:29;;;;;;;0.45;0.45;;;1.00;99.90;;;;;;4993517;28;20305;-69
2021/01/25 08:07:55;;;;;;;0.45;0.45;;;1.10;99.90;;;;;;4993611;28;20181;-67
2021/01/25 08:10:22;;;;;;;0.40;0.40;;;1.10;99.90;;;;;;4994037;28;20194;-68
2021/01/25 08:12:48;;;;;;;0.30;0.30;;;1.20;99.90;;;;;;4993811;28;20171;-68
2021/01/25 08:15:29;;;;;;;0.30;0.30;;;1.20;99.90;;;;;;4993274;28;20175;-71
2021/01/25 08:17:59;;;;;;;0.80;0.80;;;1.20;99.90;;;;;;4993981;28;20589;-68
2021/01/25 08:20:31;;;;;;;0.47;0.47;;;1.30;99.90;;;;;;4993497;28;20188;-70
2021/01/25 08:23:22;;;;;;;0.40;0.40;;;1.30;99.90;;;;;;4996106;28;20171;-70
2021/01/25 08:25:58;;;;;;;0.75;0.75;;;1.30;99.90;;;;;;4992799;28;20202;-69
2021/01/25 08:28:29;;;;;;;0.30;0.30;;;1.30;99.90;;;;;;5000744;28;20172;-70
2021/01/25 08:31:11;;;;;;;0.40;0.40;;;1.20;99.90;;;;;;4983717;28;20291;-75
2021/01/25 08:33:39;;;;;;;0.70;0.70;;;1.20;99.90;;;;;;4997931;28;20502;-70
2021/01/25 08:36:08;;;;;;;0.40;0.40;;;1.20;99.90;;;;;;5002089;28;20190;-71
2021/01/25 08:38:37;;;;;;;0.40;0.40;;;1.20;99.90;;;;;;5003318;28;20166;-73
2021/01/25 08:41:28;;;;;;;0.40;0.40;;;1.10;99.90;;;;;;5003181;28;20186;-72
2021/01/25 08:44:01;;;;;;;0.40;0.40;;;1.20;99.90;;;;;;5000473;28;20533;-72
2021/01/25 08:46:38;;;;;;;0.30;0.30;;;1.30;99.90;;;;;;5001184;28;20204;-73
2021/01/25 08:49:22;;;;;;;0.30;0.30;;;1.30;99.90;;;;;;5007283;28;20170;-72
2021/01/25 08:51:57;;;;;;;0.63;0.63;;;1.30;99.90;;;;;;5003863;28;20175;-70
2021/01/25 08:54:31;;;;;;;0.30;0.30;;;1.30;99.90;;;;;;4996961;28;20740;-72
2021/01/25 08:56:58;;;;;;;0.40;0.40;;;1.30;99.90;;;;;;4996820;28;20199;-72
2021/01/25 08:59:39;;;;;;;0.30;0.30;;;1.30;99.90;;;;;;4997116;28;20180;-72
2021/01/25 09:02:21;;;;;;;0.30;0.30;;;1.40;99.90;;;;;;4997155;28;20218;-72
2021/01/25 09:04:52;;;;;;;0.40;0.40;;;1.40;99.90;;;;;;4996789;28;20171;-71
2021/01/25 09:07:21;;;;;;;0.77;0.77;;;1.40;99.90;;;;;;4979408;28;20216;-71
2021/01/25 09:09:47;;;;;;;0.30;0.30;;;1.40;99.90;;;;;;4999193;28;20176;-69
2021/01/25 09:12:14;;;;;;;0.30;0.30;;;1.50;99.90;;;;;;4996752;28;20191;-70
2021/01/25 09:14:41;;;;;;;0.32;0.32;;;1.50;99.90;;;;;;4996757;28;20681;-71
2021/01/25 09:17:07;;;;;;;0.40;0.40;;;1.40;99.90;;;;;;4979089;28;20287;-70
2021/01/25 09:19:34;;;;;;;0.30;0.30;;;1.40;99.90;;;;;;4996741;28;20191;-70
2021/01/25 09:21:59;;;;;;;0.30;0.30;;;1.40;99.90;;;;;;4978474;28;20271;-70
2021/01/25 09:24:25;;;;;;;0.30;0.30;;;1.40;99.90;;;;;;4996578;28;20255;-71
2021/01/25 09:26:50;;;;;;;0.70;0.70;;;1.40;99.90;;;;;;4978558;28;20203;-71
2021/01/25 09:29:16;;;;;;;0.30;0.30;;;1.40;99.90;;;;;;4996262;28;20168;-71
2021/01/25 09:31:42;;;;;;;0.30;0.30;;;1.50;99.90;;;;;;4996563;28;20174;-69
2021/01/25 09:34:07;;;;;;;0.30;0.30;;;1.50;99.90;;;;;;4996427;28;20167;-69
2021/01/25 09:36:33;;;;;;;0.30;0.30;;;1.50;99.90;;;;;;4987088;28;20233;-70
2021/01/25 09:38:59;;;;;;;0.40;0.40;;;1.50;99.90;;;;;;5016088;28;20168;-69
2021/01/25 09:41:25;;;;;;;0.30;0.30;;;1.50;99.90;;;;;;5007068;28;20622;-68
2021/01/25 09:43:51;;;;;;;0.50;0.50;;;1.50;99.90;;;;;;4996184;28;20414;-72
2021/01/25 09:46:19;;;;;;;0.40;0.40;;;1.50;99.90;;;;;;4978608;28;20209;-70
2021/01/25 09:48:45;;;;;;;0.30;0.30;;;1.50;99.90;;;;;;5003420;28;20174;-68
2021/01/25 09:51:10;;;;;;;1.00;1.00;;;1.60;99.90;;;;;;4995780;28;20250;-69
2021/01/25 09:53:36;;;;;;;0.40;0.40;;;1.60;99.90;;;;;;4996285;28;20665;-68
2021/01/25 09:56:02;;;;;;;0.30;0.30;;;1.60;99.90;;;;;;4995624;28;20195;-68
2021/01/25 09:58:27;;;;;;;0.50;0.50;;;1.60;99.90;;;;;;4997445;28;20274;-67
2021/01/25 10:00:53;;;;;;;0.40;0.40;;;1.70;99.90;;;;;;5003471;28;20419;-68
2021/01/25 10:03:19;;;;;;;0.50;0.50;;;1.70;99.90;;;;;;5009869;28;20566;-71
2021/01/25 10:05:45;;;;;;;0.40;0.40;;;1.80;99.90;;;;;;5015417;28;20555;-70
2021/01/25 10:08:11;;;;;;;1.60;1.23;;;1.80;99.90;;;;;;4994915;28;20585;-70
2021/01/25 10:10:37;;;;;;;0.30;0.30;;;1.90;99.90;;;;;;5001845;28;20558;-69
2021/01/25 10:13:05;;;;;;;0.30;0.30;;;2.00;99.90;;;;;;4978227;28;20182;-70
2021/01/25 10:15:30;;;;;;;0.95;0.95;;;2.10;99.90;;;;;;4998702;28;20171;-69
2021/01/25 10:17:56;;;;;;;0.40;0.40;;;2.10;99.90;;;;;;4997533;28;20182;-70
2021/01/25 10:20:22;;;;;;;0.30;0.30;;;2.20;99.90;;;;;;5015177;28;20182;-72
2021/01/25 10:22:48;;;;;;;0.30;0.30;;;2.10;99.90;;;;;;4993629;28;20883;-73
2021/01/25 10:25:14;;;;;;;0.40;0.40;;;2.20;99.90;;;;;;4995028;28;20250;-71
2021/01/25 10:27:39;;;;;;;2.80;1.45;;;2.20;99.90;;;;;;4977842;28;20217;-71
2021/01/25 10:30:09;;;;;;;0.30;0.30;;;2.30;99.90;;;;;;4995442;28;20171;-72
2021/01/25 10:32:34;;;;;;;0.30;0.30;;;2.40;99.90;;;;;;4995621;28;20171;-72
2021/01/25 10:35:00;;;;;;;0.30;0.30;;;2.60;99.90;;;;;;5001515;28;20186;-72
2021/01/25 10:37:27;;;;;;;0.30;0.30;;;2.60;99.90;;;;;;4999470;28;20435;-71
2021/01/25 10:39:52;;;;;;;0.60;0.60;;;2.60;99.90;;;;;;4977907;28;20559;-72
2021/01/25 10:42:18;;;;;;;0.60;0.60;;;2.70;99.90;;;;;;4977932;28;20266;-71
2021/01/25 10:44:44;;;;;;;0.30;0.30;;;2.70;99.90;;;;;;4994812;28;20181;-72
2021/01/25 10:47:14;;;;;;;0.53;0.53;;;2.60;99.90;;;;;;4994943;28;20673;-75
2021/01/25 10:49:40;;;;;;;0.40;0.40;;;2.60;99.90;;;;;;4995312;28;20172;-75
2021/01/25 10:52:06;;;;;;;0.73;0.73;;;2.70;99.90;;;;;;4994885;28;20630;-73
2021/01/25 10:54:31;;;;;;;0.60;0.60;;;2.70;99.90;;;;;;4977495;28;20832;-72
2021/01/25 10:56:57;;;;;;;0.40;0.40;;;2.90;99.90;;;;;;4993452;28;20238;-74
2021/01/25 10:59:23;;;;;;;0.30;0.30;;;2.90;99.90;;;;;;4994673;28;20207;-71
2021/01/25 11:01:49;;;;;;;0.30;0.30;;;3.00;99.90;;;;;;4994728;28;20171;-73
2021/01/25 11:04:14;;;;;;;0.30;0.30;;;3.10;99.90;;;;;;4976702;28;20187;-75
2021/01/25 11:06:40;;;;;;;0.80;0.80;;;3.30;99.90;;;;;;4976147;28;20196;-72
2021/01/25 11:09:06;;;;;;;0.67;0.67;;;3.30;99.90;;;;;;4994019;28;20182;-71
2021/01/25 11:11:32;;;;;;;0.30;0.30;;;3.50;99.90;;;;;;4993966;28;20167;-70
2021/01/25 11:13:57;;;;;;;0.30;0.30;;;3.50;99.90;;;;;;4994574;28;20626;-70
2021/01/25 11:16:23;;;;;;;1.43;1.37;;;3.50;99.90;;;;;;4994290;28;20273;-73
2021/01/25 11:18:49;;;;;;;0.30;0.30;;;3.60;99.90;;;;;;4976926;28;20557;-72
2021/01/25 11:21:14;;;;;;;0.30;0.30;;;3.60;99.90;;;;;;4994647;28;20656;-71
2021/01/25 11:23:40;;;;;;;0.73;0.73;;;3.80;99.90;;;;;;4993564;28;20186;-72
2021/01/25 11:26:05;;;;;;;0.40;0.40;;;3.70;99.90;;;;;;4993548;28;20209;-72
2021/01/25 11:28:31;;;;;;;0.30;0.30;;;3.80;99.90;;;;;;4994100;28;20254;-75
2021/01/25 11:30:57;;;;;;;0.40;0.40;;;3.80;99.90;;;;;;4994482;28;20584;-74
2021/01/25 11:33:22;;;;;;;0.40;0.40;;;3.90;99.90;;;;;;4994309;28;20178;-74
2021/01/25 11:35:51;;;;;;;4.90;0.90;;;4.00;99.90;;;;;;4993750;28;20538;-75
2021/01/25 11:38:16;;;;;;;0.30;0.30;;;4.10;99.90;;;;;;4976720;28;20175;-75
2021/01/25 11:40:42;;;;;;;0.30;0.30;;;4.10;99.90;;;;;;4993583;28;20278;-75
2021/01/25 11:43:08;;;;;;;0.40;0.40;;;4.10;99.90;;;;;;4994268;28;20212;-74
2021/01/25 11:45:35;;;;;;;0.30;0.30;;;4.30;99.90;;;;;;4976001;28;20182;-75
2021/01/25 11:48:00;;;;;;;0.30;0.30;;;4.30;99.90;;;;;;4993859;28;20170;-74
2021/01/25 11:50:26;;;;;;;0.30;0.30;;;4.30;99.90;;;;;;4994197;28;20163;-74
2021/01/25 11:52:52;;;;;;;1.23;0.63;;;4.40;99.90;;;;;;4976282;28;20318;-75
2021/01/25 11:55:17;;;;;;;0.30;0.30;;;4.30;99.90;;;;;;4993846;28;20178;-75
2021/01/25 11:57:43;;;;;;;0.30;0.30;;;4.30;99.90;;;;;;4993809;28;20219;-74
2021/01/25 12:00:09;;;;;;;0.40;0.40;;;4.30;99.90;;;;;;4994099;28;20167;-74
2021/01/25 12:02:35;;;;;;;0.30;0.30;;;4.40;99.90;;;;;;4976587;28;20180;-75
2021/01/25 12:05:01;;;;;;;0.50;0.50;;;4.50;99.90;;;;;;4993554;28;20360;-72
2021/01/25 12:07:26;;;;;;;0.30;0.30;;;4.70;99.90;;;;;;4976008;28;20202;-72
2021/01/25 12:09:52;;;;;;;0.30;0.30;;;4.70;99.90;;;;;;4993751;28;20251;-74
2021/01/25 12:12:17;;;;;;;0.37;0.37;;;4.80;99.90;;;;;;4993840;28;20225;-74
2021/01/25 12:14:43;;;;;;;0.37;0.37;;;5.00;99.90;;;;;;4993319;28;20172;-73
2021/01/25 12:17:09;;;;;;;0.37;0.37;;;5.00;99.90;;;;;;4976486;28;20191;-72
2021/01/25 12:19:36;;;;;;;0.30;0.30;;;5.10;99.90;;;;;;4993899;28;20218;-72
2021/01/25 12:22:02;;;;;;;0.30;0.30;;;5.20;99.90;;;;;;4994806;28;20172;-72
2021/01/25 12:24:27;;;;;;;0.30;0.27;;;5.30;99.90;;;;;;4997854;28;20281;-73
2021/01/25 12:26:53;;;;;;;0.30;0.30;;;5.40;99.90;;;;;;4997276;28;20960;-73
2021/01/25 12:29:19;;;;;;;0.40;0.40;;;5.50;99.90;;;;;;4997478;28;20564;-72
2021/01/25 12:31:44;;;;;;;0.30;0.30;;;5.70;99.90;;;;;;4997509;28;20183;-72
2021/01/25 12:34:11;;;;;;;0.30;0.30;;;5.80;99.90;;;;;;4997733;28;20482;-72
2021/01/25 12:36:37;;;;;;;0.30;0.30;;;5.80;99.90;;;;;;4997177;28;20551;-73
2021/01/25 12:39:05;;;;;;;0.30;0.30;;;5.90;99.90;;;;;;4997369;28;20236;-72
2021/01/25 12:41:31;;;;;;;0.30;0.30;;;6.00;99.90;;;;;;4997535;28;20501;-72
2021/01/25 12:43:57;;;;;;;0.40;0.40;;;6.00;99.90;;;;;;4997102;28;20247;-74
2021/01/25 12:46:22;;;;;;;0.30;0.30;;;6.00;99.90;;;;;;4997036;28;20209;-71
2021/01/25 12:48:49;;;;;;;0.30;0.30;;;6.10;99.90;;;;;;4997498;28;20175;-72
2021/01/25 12:51:14;;;;;;;0.30;0.30;;;6.10;99.90;;;;;;4997669;28;20191;-72
2021/01/25 12:53:41;;;;;;;0.50;0.50;;;6.10;99.90;;;;;;4997259;28;20640;-70
2021/01/25 12:56:06;;;;;;;0.75;0.75;;;6.20;99.90;;;;;;4979266;28;20447;-75
2021/01/25 12:58:32;;;;;;;0.30;0.20;;;6.20;99.90;;;;;;4979496;28;20183;-70